createdAt,value
2022-10-11T00:06:21.604Z,100
2022-10-11T00:26:23.446Z,100
2022-10-11T02:46:31.537Z,100
2022-10-11T02:56:32.556Z,100
2022-10-11T03:06:33.394Z,100
2022-10-11T03:16:33.550Z,100
2022-10-11T03:26:33.919Z,100
2022-10-11T03:36:34.527Z,100
2022-10-11T03:56:35.425Z,100
2022-10-11T04:06:36.463Z,100
2022-10-11T04:16:37.458Z,100
2022-10-11T04:26:38.044Z,100
2022-10-11T04:36:38.609Z,100
2022-10-11T04:46:39.485Z,100
2022-10-11T04:56:39.857Z,100
2022-10-11T05:06:40.344Z,100
2022-10-11T05:16:41.392Z,100
2022-10-11T05:30:30.109Z,100
2022-10-11T05:49:53.623Z,100
2022-10-11T06:09:54.703Z,100
2022-10-11T06:29:56.153Z,100
2022-10-11T06:39:56.903Z,100
2022-10-11T06:49:57.824Z,100
2022-10-11T07:09:59.567Z,100
2022-10-11T07:30:22.034Z,100
2022-10-11T08:20:08.714Z,100
2022-10-11T08:30:08.846Z,100
2022-10-11T08:40:09.502Z,100
2022-10-11T09:00:10.153Z,97
2022-10-11T09:10:10.367Z,95
2022-10-11T09:20:11.173Z,93
2022-10-11T09:40:12.899Z,90
2022-10-11T09:50:13.301Z,89
2022-10-11T10:00:13.674Z,86
2022-10-11T10:10:14.602Z,82
2022-10-11T10:20:15.172Z,83
2022-10-11T10:30:16.063Z,79
2022-10-11T10:40:16.566Z,77
2022-10-11T10:50:17.406Z,75
2022-10-11T11:00:18.154Z,75
2022-10-11T11:10:18.663Z,76
2022-10-11T11:20:18.985Z,74
2022-10-11T11:30:19.136Z,67
2022-10-11T11:40:19.841Z,66
2022-10-11T12:00:21.125Z,65
2022-10-11T12:10:21.502Z,62
2022-10-11T12:30:22.307Z,64
2022-10-11T12:40:22.623Z,65
2022-10-11T12:50:23.006Z,63
2022-10-11T13:00:23.364Z,63
2022-10-11T13:10:24.317Z,63
2022-10-11T13:20:24.496Z,61
2022-10-11T13:30:25.364Z,60
2022-10-11T13:40:26.010Z,59
2022-10-11T13:50:26.845Z,61
2022-10-11T14:00:27.387Z,62
2022-10-11T14:10:28.109Z,62
2022-10-11T14:20:33.071Z,62
2022-10-11T14:30:29.273Z,62
2022-10-11T14:50:30.420Z,68
2022-10-11T15:10:31.550Z,65
2022-10-11T15:20:32.175Z,70
2022-10-11T15:30:33.949Z,70
2022-10-11T15:40:32.641Z,71
2022-10-11T15:50:33.090Z,73
2022-10-11T16:00:33.403Z,75
2022-10-11T16:10:34.425Z,78
2022-10-11T16:20:35.414Z,80
2022-10-11T16:30:36.205Z,81
2022-10-11T16:50:39.584Z,85
2022-10-11T17:00:37.944Z,87
2022-10-11T17:10:38.447Z,88
2022-10-11T17:20:39.089Z,90
2022-10-11T17:40:40.743Z,92
2022-10-11T17:50:41.686Z,93
2022-10-11T18:10:47.416Z,94
2022-10-11T18:30:44.507Z,95
2022-10-11T18:50:45.505Z,96
2022-10-11T19:00:46.489Z,96
2022-10-11T19:10:46.998Z,97
2022-10-11T19:50:49.884Z,98
2022-10-11T20:00:50.139Z,98
2022-10-11T20:10:50.460Z,98
2022-10-11T20:20:50.617Z,98
2022-10-11T20:30:51.224Z,99
2022-10-11T20:40:52.125Z,99
2022-10-11T21:00:53.228Z,99
2022-10-11T21:10:53.765Z,99
2022-10-11T21:40:55.278Z,100
2022-10-11T21:50:55.633Z,100
2022-10-11T22:10:57.237Z,100
2022-10-11T22:20:57.979Z,100
2022-10-11T22:30:58.141Z,100
2022-10-11T22:40:58.417Z,100
2022-10-11T22:50:58.734Z,100
2022-10-11T23:00:59.788Z,100
2022-10-11T23:11:00.873Z,100
2022-10-11T23:21:01.669Z,100
2022-10-11T23:31:02.280Z,100
2022-10-11T23:41:02.676Z,100
2022-10-11T23:51:02.811Z,100
